KMCF/MCF METAR and TAF weather

Enter ICAO airport designator
Station Type Date Time Source
KMCF METAR 2018/12/12 11:56 UTC NOAA

KMCF 121156Z AUTO 07007KT 10SM CLR 05/03 A3029 RMK AO2 SLPNO T00510034 10078 20037 53002 FZRANO $


Station Type Date Time Source
KMCF Decoded METAR 2018/12/12 11:56 UTC NOAA

Macdill Air Force Base, Fl., FL, United States (KMCF) 27-51N 082-30W 4M
Dec 12, 2018 - 06:56 AM EST / 2018.12.12 1156 UTC
Wind: from the ENE (070 degrees) at 8 MPH (7 KT):0
Visibility: 10 mile(s):0
Sky conditions: clear
Temperature: 41.2 F (5.1 C)
Dew Point: 38.1 F (3.4 C)
Relative Humidity: 88%
Pressure (altimeter): 30.29 in. Hg (1025 hPa)
Pressure tendency: 0.01 inches (0.2 hPa) higher than three hours ago
ob: KMCF 121156Z AUTO 07007KT 10SM CLR 05/03 A3029 RMK AO2 SLPNO T00510034 10078 20037 53002 FZRANO
cycle: 12

Station Type Date Time Source
KMCF TAF 2018/12/12 09:06 UTC NOAA

TAF KMCF 120900Z 1209/1315 05009KT 9999 SKC QNH3024INS
BECMG 1220/1221 05009KT 9999 SCT250 QNH3018INS
BECMG 1308/1309 07009KT 9999 SCT035 BKN050 QNH3014INS TX19/1221Z TN03/1212Z


Example: see airport list